sensor_id;sensor_type;location;lat;lon;timestamp;pressure;altitude;pressure_sealevel;temperature;humidity
20987;BME280;10652;50.306;8.570;2024-03-23T00:55:37;97098.19;;;6.26;99.71
20987;BME280;10652;50.306;8.570;2024-03-23T00:59:38;97102.59;;;6.24;98.99
20987;BME280;10652;50.306;8.570;2024-03-23T01:03:39;97106.69;;;6.31;99.13
20987;BME280;10652;50.306;8.570;2024-03-23T01:07:40;97093.75;;;6.46;99.69
20987;BME280;10652;50.306;8.570;2024-03-23T01:11:41;97087.44;;;6.52;97.77
20987;BME280;10652;50.306;8.570;2024-03-23T01:15:48;97072.19;;;6.43;97.00
20987;BME280;10652;50.306;8.570;2024-03-23T01:19:49;97084.19;;;6.27;98.95
20987;BME280;10652;50.306;8.570;2024-03-23T01:23:50;97070.22;;;6.09;99.38
20987;BME280;10652;50.306;8.570;2024-03-23T01:27:51;97066.31;;;5.80;100.00
20987;BME280;10652;50.306;8.570;2024-03-23T01:31:53;97059.94;;;5.47;100.00
20987;BME280;10652;50.306;8.570;2024-03-23T01:35:54;97050.56;;;5.43;100.00
20987;BME280;10652;50.306;8.570;2024-03-23T01:39:55;97040.31;;;5.40;100.00
20987;BME280;10652;50.306;8.570;2024-03-23T01:43:56;97041.00;;;5.43;100.00
20987;BME280;10652;50.306;8.570;2024-03-23T01:47:58;97042.38;;;5.52;100.00
20987;BME280;10652;50.306;8.570;2024-03-23T01:52:00;97039.31;;;5.63;100.00
20987;BME280;10652;50.306;8.570;2024-03-23T01:56:02;97032.50;;;5.79;100.00
20987;BME280;10652;50.306;8.570;2024-03-23T02:00:04;97017.81;;;5.96;100.00
20987;BME280;10652;50.306;8.570;2024-03-23T02:04:13;97020.84;;;6.06;100.00
20987;BME280;10652;50.306;8.570;2024-03-23T02:08:14;97011.47;;;6.21;100.00
20987;BME280;10652;50.306;8.570;2024-03-23T02:12:15;97009.13;;;6.35;100.00
20987;BME280;10652;50.306;8.570;2024-03-23T02:16:17;97004.38;;;6.43;100.00
20987;BME280;10652;50.306;8.570;2024-03-23T02:20:18;96993.56;;;6.51;100.00
20987;BME280;10652;50.306;8.570;2024-03-23T02:24:19;96980.63;;;6.49;100.00
20987;BME280;10652;50.306;8.570;2024-03-23T02:28:20;96987.94;;;6.41;100.00
20987;BME280;10652;50.306;8.570;2024-03-23T02:32:23;96984.09;;;6.31;100.00
20987;BME280;10652;50.306;8.570;2024-03-23T02:36:24;96980.66;;;6.29;100.00
20987;BME280;10652;50.306;8.570;2024-03-23T02:40:27;96960.50;;;6.51;100.00
20987;BME280;10652;50.306;8.570;2024-03-23T02:44:28;96948.53;;;6.64;100.00
20987;BME280;10652;50.306;8.570;2024-03-23T02:48:29;96947.25;;;6.73;100.00
20987;BME280;10652;50.306;8.570;2024-03-23T02:52:30;96946.91;;;6.80;100.00
20987;BME280;10652;50.306;8.570;2024-03-23T02:56:32;96941.69;;;6.80;100.00
20987;BME280;10652;50.306;8.570;2024-03-23T03:00:33;96935.50;;;6.81;100.00
20987;BME280;10652;50.306;8.570;2024-03-23T03:04:34;96925.69;;;6.86;100.00
20987;BME280;10652;50.306;8.570;2024-03-23T03:08:36;96923.84;;;6.88;100.00
20987;BME280;10652;50.306;8.570;2024-03-23T03:12:37;96913.59;;;6.85;100.00
20987;BME280;10652;50.306;8.570;2024-03-23T03:16:39;96905.13;;;6.80;100.00
20987;BME280;10652;50.306;8.570;2024-03-23T03:20:40;96904.41;;;6.77;100.00
20987;BME280;10652;50.306;8.570;2024-03-23T03:24:41;96906.66;;;6.84;100.00
20987;BME280;10652;50.306;8.570;2024-03-23T03:28:43;96905.28;;;6.95;100.00
20987;BME280;10652;50.306;8.570;2024-03-23T03:32:49;96885.81;;;7.00;100.00
20987;BME280;10652;50.306;8.570;2024-03-23T03:36:51;96881.53;;;6.82;100.00
20987;BME280;10652;50.306;8.570;2024-03-23T03:40:52;96869.22;;;6.85;100.00
20987;BME280;10652;50.306;8.570;2024-03-23T03:44:54;96862.06;;;6.89;100.00
20987;BME280;10652;50.306;8.570;2024-03-23T03:48:55;96899.97;;;6.96;100.00
20987;BME280;10652;50.306;8.570;2024-03-23T03:52:56;96914.72;;;6.97;100.00
20987;BME280;10652;50.306;8.570;2024-03-23T03:56:57;96923.22;;;7.01;100.00
20987;BME280;10652;50.306;8.570;2024-03-23T04:00:58;96918.41;;;6.93;100.00
20987;BME280;10652;50.306;8.570;2024-03-23T04:04:59;96931.38;;;6.77;100.00
20987;BME280;10652;50.306;8.570;2024-03-23T04:09:00;96949.34;;;6.66;100.00
20987;BME280;10652;50.306;8.570;2024-03-23T04:13:01;96946.31;;;6.57;100.00
20987;BME280;10652;50.306;8.570;2024-03-23T04:17:06;96958.97;;;6.47;100.00
20987;BME280;10652;50.306;8.570;2024-03-23T04:21:07;96977.72;;;6.36;100.00
20987;BME280;10652;50.306;8.570;2024-03-23T04:25:08;96978.88;;;6.31;100.00
20987;BME280;10652;50.306;8.570;2024-03-23T04:29:09;96963.31;;;6.28;100.00
20987;BME280;10652;50.306;8.570;2024-03-23T04:33:10;96965.47;;;6.20;100.00
20987;BME280;10652;50.306;8.570;2024-03-23T04:37:11;96978.13;;;6.09;100.00
20987;BME280;10652;50.306;8.570;2024-03-23T04:41:12;96970.19;;;5.93;100.00
20987;BME280;10652;50.306;8.570;2024-03-23T04:45:14;96974.06;;;5.84;100.00
20987;BME280;10652;50.306;8.570;2024-03-23T04:49:15;96975.19;;;5.79;100.00
20987;BME280;10652;50.306;8.570;2024-03-23T04:53:16;96984.59;;;5.81;100.00
20987;BME280;10652;50.306;8.570;2024-03-23T04:57:17;96986.44;;;5.79;100.00
20987;BME280;10652;50.306;8.570;2024-03-23T05:01:21;97011.50;;;5.82;100.00
20987;BME280;10652;50.306;8.570;2024-03-23T05:05:25;97003.84;;;5.79;100.00
20987;BME280;10652;50.306;8.570;2024-03-23T05:09:26;97001.78;;;5.67;100.00
20987;BME280;10652;50.306;8.570;2024-03-23T05:13:30;96996.69;;;5.64;100.00
20987;BME280;10652;50.306;8.570;2024-03-23T05:17:32;97016.13;;;5.56;100.00
20987;BME280;10652;50.306;8.570;2024-03-23T05:21:33;97020.63;;;5.53;100.00
20987;BME280;10652;50.306;8.570;2024-03-23T05:25:34;97020.50;;;5.56;100.00
20987;BME280;10652;50.306;8.570;2024-03-23T05:29:35;97016.13;;;5.56;100.00
20987;BME280;10652;50.306;8.570;2024-03-23T05:33:36;97026.09;;;5.47;100.00
20987;BME280;10652;50.306;8.570;2024-03-23T05:37:40;97018.72;;;5.36;100.00
20987;BME280;10652;50.306;8.570;2024-03-23T05:41:42;97039.00;;;5.30;100.00
20987;BME280;10652;50.306;8.570;2024-03-23T05:45:43;97046.00;;;5.28;100.00
20987;BME280;10652;50.306;8.570;2024-03-23T05:49:45;97047.13;;;5.22;100.00
20987;BME280;10652;50.306;8.570;2024-03-23T05:53:47;97055.53;;;5.08;100.00
20987;BME280;10652;50.306;8.570;2024-03-23T05:57:48;97063.13;;;4.91;100.00
20987;BME280;10652;50.306;8.570;2024-03-23T06:01:49;97100.19;;;4.76;100.00
20987;BME280;10652;50.306;8.570;2024-03-23T06:05:51;97111.72;;;4.69;100.00
20987;BME280;10652;50.306;8.570;2024-03-23T06:09:52;97114.19;;;4.50;100.00
20987;BME280;10652;50.306;8.570;2024-03-23T06:13:53;97098.31;;;4.35;100.00
20987;BME280;10652;50.306;8.570;2024-03-23T06:17:54;97102.16;;;4.24;100.00
20987;BME280;10652;50.306;8.570;2024-03-23T06:21:55;97086.78;;;4.18;100.00
20987;BME280;10652;50.306;8.570;2024-03-23T06:25:57;97087.25;;;4.06;100.00
20987;BME280;10652;50.306;8.570;2024-03-23T06:30:01;97087.41;;;4.02;100.00
20987;BME280;10652;50.306;8.570;2024-03-23T06:34:02;97131.31;;;4.09;100.00
20987;BME280;10652;50.306;8.570;2024-03-23T06:38:03;97148.16;;;4.22;100.00
20987;BME280;10652;50.306;8.570;2024-03-23T06:42:05;97166.34;;;4.22;100.00
20987;BME280;10652;50.306;8.570;2024-03-23T06:46:06;97164.03;;;4.15;100.00
20987;BME280;10652;50.306;8.570;2024-03-23T06:50:07;97174.09;;;4.24;100.00
20987;BME280;10652;50.306;8.570;2024-03-23T06:54:11;97186.38;;;4.44;100.00
20987;BME280;10652;50.306;8.570;2024-03-23T06:58:12;97194.97;;;4.46;100.00
20987;BME280;10652;50.306;8.570;2024-03-23T07:02:13;97209.66;;;4.47;98.25
20987;BME280;10652;50.306;8.570;2024-03-23T07:06:15;97231.97;;;4.54;97.26
20987;BME280;10652;50.306;8.570;2024-03-23T07:10:16;97237.47;;;4.68;95.53
20987;BME280;10652;50.306;8.570;2024-03-23T07:14:18;97225.75;;;4.81;92.39
20987;BME280;10652;50.306;8.570;2024-03-23T07:18:19;97224.25;;;5.19;92.39
20987;BME280;10652;50.306;8.570;2024-03-23T07:22:20;97235.34;;;5.24;87.98
20987;BME280;10652;50.306;8.570;2024-03-23T07:26:22;97240.75;;;5.20;89.20
20987;BME280;10652;50.306;8.570;2024-03-23T07:30:23;97249.34;;;5.22;87.51
20987;BME280;10652;50.306;8.570;2024-03-23T07:34:24;97251.06;;;5.44;88.04
20987;BME280;10652;50.306;8.570;2024-03-23T07:38:29;97261.28;;;5.71;84.43
20987;BME280;10652;50.306;8.570;2024-03-23T07:42:30;97268.94;;;5.95;84.08
20987;BME280;10652;50.306;8.570;2024-03-23T07:46:31;97282.91;;;5.94;81.62
20987;BME280;10652;50.306;8.570;2024-03-23T07:50:33;97278.00;;;5.87;81.96
20987;BME280;10652;50.306;8.570;2024-03-23T07:54:34;97283.16;;;5.88;81.66
20987;BME280;10652;50.306;8.570;2024-03-23T07:58:35;97281.97;;;6.17;83.46
20987;BME280;10652;50.306;8.570;2024-03-23T08:02:37;97293.97;;;6.21;79.65
20987;BME280;10652;50.306;8.570;2024-03-23T08:06:38;97293.13;;;6.41;78.79
20987;BME280;10652;50.306;8.570;2024-03-23T08:10:52;97301.75;;;6.43;79.85
20987;BME280;10652;50.306;8.570;2024-03-23T08:14:54;97309.69;;;6.60;87.96
20987;BME280;10652;50.306;8.570;2024-03-23T08:18:55;97318.59;;;7.71;88.52
20987;BME280;10652;50.306;8.570;2024-03-23T08:22:57;97326.47;;;7.89;72.07
20987;BME280;10652;50.306;8.570;2024-03-23T08:26:58;97332.34;;;7.56;73.72
20987;BME280;10652;50.306;8.570;2024-03-23T08:31:05;97335.13;;;7.34;72.99
20987;BME280;10652;50.306;8.570;2024-03-23T08:35:06;97324.66;;;7.16;73.75
20987;BME280;10652;50.306;8.570;2024-03-23T08:39:09;97324.22;;;7.25;72.69
20987;BME280;10652;50.306;8.570;2024-03-23T08:43:10;97332.81;;;7.27;73.62
20987;BME280;10652;50.306;8.570;2024-03-23T08:47:11;97337.63;;;7.36;72.77
20987;BME280;10652;50.306;8.570;2024-03-23T08:51:13;97343.59;;;7.40;73.71
20987;BME280;10652;50.306;8.570;2024-03-23T08:55:15;97353.63;;;7.49;73.23
20987;BME280;10652;50.306;8.570;2024-03-23T08:59:16;97350.50;;;7.59;72.05
20987;BME280;10652;50.306;8.570;2024-03-23T09:03:17;97355.66;;;7.79;72.65
20987;BME280;10652;50.306;8.570;2024-03-23T09:07:19;97358.13;;;7.82;70.58
20987;BME280;10652;50.306;8.570;2024-03-23T09:11:20;97367.63;;;7.66;68.80
20987;BME280;10652;50.306;8.570;2024-03-23T09:15:21;97385.00;;;7.67;66.12
20987;BME280;10652;50.306;8.570;2024-03-23T09:19:22;97383.06;;;7.90;65.52
20987;BME280;10652;50.306;8.570;2024-03-23T09:23:24;97383.50;;;7.80;65.45
20987;BME280;10652;50.306;8.570;2024-03-23T09:27:25;97379.78;;;7.67;63.49
20987;BME280;10652;50.306;8.570;2024-03-23T09:31:26;97393.31;;;7.57;61.86
20987;BME280;10652;50.306;8.570;2024-03-23T09:35:27;97385.38;;;7.96;63.38
20987;BME280;10652;50.306;8.570;2024-03-23T09:39:29;97383.25;;;8.22;62.22
20987;BME280;10652;50.306;8.570;2024-03-23T09:43:30;97365.38;;;8.66;60.35
20987;BME280;10652;50.306;8.570;2024-03-23T09:47:32;97363.34;;;9.06;60.76
20987;BME280;10652;50.306;8.570;2024-03-23T09:51:36;97366.53;;;9.28;57.42
20987;BME280;10652;50.306;8.570;2024-03-23T09:55:38;97367.00;;;9.19;53.82
20987;BME280;10652;50.306;8.570;2024-03-23T09:59:39;97361.25;;;9.12;54.70
20987;BME280;10652;50.306;8.570;2024-03-23T10:03:44;97359.16;;;9.19;54.67
20987;BME280;10652;50.306;8.570;2024-03-23T10:07:46;97356.03;;;9.28;54.25
20987;BME280;10652;50.306;8.570;2024-03-23T10:11:47;97347.13;;;9.64;53.66
20987;BME280;10652;50.306;8.570;2024-03-23T10:15:58;97360.53;;;10.06;52.07
20987;BME280;10652;50.306;8.570;2024-03-23T10:19:59;97419.81;;;8.77;53.61
20987;BME280;10652;50.306;8.570;2024-03-23T10:24:08;97438.84;;;7.71;59.86
20987;BME280;10652;50.306;8.570;2024-03-23T10:28:09;97427.00;;;7.24;63.60
20987;BME280;10652;50.306;8.570;2024-03-23T10:32:13;97419.97;;;6.65;65.38
20987;BME280;10652;50.306;8.570;2024-03-23T10:36:15;97408.84;;;6.40;66.58
20987;BME280;10652;50.306;8.570;2024-03-23T10:40:17;97399.19;;;6.42;67.49
20987;BME280;10652;50.306;8.570;2024-03-23T10:44:19;97383.94;;;6.73;69.19
20987;BME280;10652;50.306;8.570;2024-03-23T10:48:20;97388.28;;;7.33;68.59
20987;BME280;10652;50.306;8.570;2024-03-23T10:52:22;97382.72;;;7.78;66.17
20987;BME280;10652;50.306;8.570;2024-03-23T10:56:23;97369.81;;;8.11;64.73
20987;BME280;10652;50.306;8.570;2024-03-23T11:00:25;97364.41;;;8.16;62.15
20987;BME280;10652;50.306;8.570;2024-03-23T11:04:36;97356.34;;;8.02;61.65
20987;BME280;10652;50.306;8.570;2024-03-23T11:08:40;97356.56;;;7.97;61.19
20987;BME280;10652;50.306;8.570;2024-03-23T11:12:44;97342.31;;;7.86;60.09
20987;BME280;10652;50.306;8.570;2024-03-23T11:16:46;97346.28;;;7.75;60.63
20987;BME280;10652;50.306;8.570;2024-03-23T11:20:47;97341.28;;;8.07;61.62
20987;BME280;10652;50.306;8.570;2024-03-23T11:24:51;97334.41;;;8.75;60.48
20987;BME280;10652;50.306;8.570;2024-03-23T11:29:09;97341.66;;;9.20;57.55
20987;BME280;10652;50.306;8.570;2024-03-23T11:33:10;97325.97;;;9.35;56.12
20987;BME280;10652;50.306;8.570;2024-03-23T11:37:11;97315.41;;;9.04;54.55
20987;BME280;10652;50.306;8.570;2024-03-23T11:41:12;97304.22;;;8.85;55.22
20987;BME280;10652;50.306;8.570;2024-03-23T11:45:14;97304.59;;;8.94;55.22
20987;BME280;10652;50.306;8.570;2024-03-23T11:49:22;97302.06;;;9.08;55.18
20987;BME280;10652;50.306;8.570;2024-03-23T11:53:24;97308.19;;;9.25;53.54
20987;BME280;10652;50.306;8.570;2024-03-23T11:57:29;97291.13;;;9.33;53.10
20987;BME280;10652;50.306;8.570;2024-03-23T12:01:31;97282.16;;;9.37;52.03
20987;BME280;10652;50.306;8.570;2024-03-23T12:05:33;97288.78;;;9.44;53.41
20987;BME280;10652;50.306;8.570;2024-03-23T12:09:34;97286.34;;;9.73;51.66
20987;BME280;10652;50.306;8.570;2024-03-23T12:13:35;97275.53;;;10.09;51.13
20987;BME280;10652;50.306;8.570;2024-03-23T12:17:36;97268.66;;;10.52;51.30
20987;BME280;10652;50.306;8.570;2024-03-23T12:21:37;97278.38;;;10.49;48.49
20987;BME280;10652;50.306;8.570;2024-03-23T12:25:39;97276.50;;;10.37;48.37
20987;BME280;10652;50.306;8.570;2024-03-23T12:29:40;97267.59;;;10.10;48.78
20987;BME280;10652;50.306;8.570;2024-03-23T12:33:46;97277.44;;;10.07;49.31
20987;BME280;10652;50.306;8.570;2024-03-23T12:37:47;97283.28;;;9.96;49.17
20987;BME280;10652;50.306;8.570;2024-03-23T12:41:49;97313.44;;;9.40;53.29
20987;BME280;10652;50.306;8.570;2024-03-23T12:45:50;97351.22;;;8.70;55.97
20987;BME280;10652;50.306;8.570;2024-03-23T12:49:51;97381.31;;;7.90;60.55
20987;BME280;10652;50.306;8.570;2024-03-23T12:53:53;97376.19;;;6.92;66.42
20987;BME280;10652;50.306;8.570;2024-03-23T12:57:54;97373.56;;;6.52;67.04
20987;BME280;10652;50.306;8.570;2024-03-23T13:01:55;97386.09;;;6.43;68.79
20987;BME280;10652;50.306;8.570;2024-03-23T13:05:56;97409.97;;;6.11;68.44
20987;BME280;10652;50.306;8.570;2024-03-23T13:09:57;97406.13;;;5.76;72.41
20987;BME280;10652;50.306;8.570;2024-03-23T13:13:58;97411.09;;;5.82;74.31
20987;BME280;10652;50.306;8.570;2024-03-23T13:17:59;97427.84;;;5.53;73.96
20987;BME280;10652;50.306;8.570;2024-03-23T13:22:01;97442.97;;;5.19;74.75
20987;BME280;10652;50.306;8.570;2024-03-23T13:26:02;97441.78;;;4.78;76.79
20987;BME280;10652;50.306;8.570;2024-03-23T13:30:04;97435.91;;;4.47;78.10
20987;BME280;10652;50.306;8.570;2024-03-23T13:34:06;97381.88;;;4.55;79.77
20987;BME280;10652;50.306;8.570;2024-03-23T13:38:07;97358.06;;;5.15;79.72
20987;BME280;10652;50.306;8.570;2024-03-23T13:42:08;97340.59;;;6.07;77.88
20987;BME280;10652;50.306;8.570;2024-03-23T13:46:10;97329.78;;;6.38;75.38
20987;BME280;10652;50.306;8.570;2024-03-23T13:50:11;97318.56;;;6.36;75.10
20987;BME280;10652;50.306;8.570;2024-03-23T13:54:12;97317.78;;;6.34;76.71
20987;BME280;10652;50.306;8.570;2024-03-23T13:58:14;97333.06;;;6.43;78.00
20987;BME280;10652;50.306;8.570;2024-03-23T14:02:15;97325.50;;;6.57;77.58
20987;BME280;10652;50.306;8.570;2024-03-23T14:06:16;97322.50;;;6.66;77.30
20987;BME280;10652;50.306;8.570;2024-03-23T14:10:17;97317.94;;;6.71;74.82
20987;BME280;10652;50.306;8.570;2024-03-23T14:14:18;97345.75;;;7.11;75.35
20987;BME280;10652;50.306;8.570;2024-03-23T14:18:19;97350.59;;;7.58;71.88
20987;BME280;10652;50.306;8.570;2024-03-23T14:22:20;97348.19;;;7.53;69.44
20987;BME280;10652;50.306;8.570;2024-03-23T14:26:23;97359.50;;;7.54;69.40
20987;BME280;10652;50.306;8.570;2024-03-23T14:30:25;97349.09;;;7.52;70.53
20987;BME280;10652;50.306;8.570;2024-03-23T14:34:26;97334.81;;;7.22;71.10
20987;BME280;10652;50.306;8.570;2024-03-23T14:38:29;97324.22;;;7.06;73.87
20987;BME280;10652;50.306;8.570;2024-03-23T14:42:30;97320.38;;;6.95;73.19
20987;BME280;10652;50.306;8.570;2024-03-23T14:46:33;97317.13;;;6.89;73.94
20987;BME280;10652;50.306;8.570;2024-03-23T14:50:34;97307.34;;;6.95;75.13
20987;BME280;10652;50.306;8.570;2024-03-23T14:54:35;97309.81;;;6.98;75.00
20987;BME280;10652;50.306;8.570;2024-03-23T14:58:36;97305.34;;;7.00;75.70
20987;BME280;10652;50.306;8.570;2024-03-23T15:02:38;97312.06;;;7.05;75.54
20987;BME280;10652;50.306;8.570;2024-03-23T15:06:39;97302.47;;;7.06;74.88
20987;BME280;10652;50.306;8.570;2024-03-23T15:10:40;97313.69;;;7.08;73.83
20987;BME280;10652;50.306;8.570;2024-03-23T15:14:42;97297.50;;;7.00;71.46
20987;BME280;10652;50.306;8.570;2024-03-23T15:18:43;97304.06;;;6.89;69.98
20987;BME280;10652;50.306;8.570;2024-03-23T15:22:44;97300.88;;;6.83;70.82
20987;BME280;10652;50.306;8.570;2024-03-23T15:26:45;97306.28;;;6.78;69.94
20987;BME280;10652;50.306;8.570;2024-03-23T15:30:47;97308.75;;;6.81;71.17
20987;BME280;10652;50.306;8.570;2024-03-23T15:34:48;97312.44;;;6.77;70.93
20987;BME280;10652;50.306;8.570;2024-03-23T15:38:49;97326.81;;;6.67;73.19
20987;BME280;10652;50.306;8.570;2024-03-23T15:42:50;97324.72;;;6.35;73.71
20987;BME280;10652;50.306;8.570;2024-03-23T15:46:51;97292.97;;;6.03;74.93
20987;BME280;10652;50.306;8.570;2024-03-23T15:50:53;97286.34;;;5.95;77.42
20987;BME280;10652;50.306;8.570;2024-03-23T15:54:54;97281.31;;;5.90;77.67
20987;BME280;10652;50.306;8.570;2024-03-23T15:58:58;97254.81;;;5.81;78.09
20987;BME280;10652;50.306;8.570;2024-03-23T16:03:06;97249.94;;;5.93;78.84
20987;BME280;10652;50.306;8.570;2024-03-23T16:07:08;97243.06;;;6.33;78.50
20987;BME280;10652;50.306;8.570;2024-03-23T16:11:09;97238.44;;;6.78;76.20
20987;BME280;10652;50.306;8.570;2024-03-23T16:15:10;97237.53;;;6.79;73.66
20987;BME280;10652;50.306;8.570;2024-03-23T16:19:11;97249.03;;;6.55;71.15
20987;BME280;10652;50.306;8.570;2024-03-23T16:23:14;97249.03;;;6.15;70.19
20987;BME280;10652;50.306;8.570;2024-03-23T16:27:15;97248.03;;;5.77;70.48
20987;BME280;10652;50.306;8.570;2024-03-23T16:31:16;97253.22;;;5.55;71.25
20987;BME280;10652;50.306;8.570;2024-03-23T16:35:18;97241.59;;;5.42;72.25
20987;BME280;10652;50.306;8.570;2024-03-23T16:39:19;97241.28;;;5.28;72.58
20987;BME280;10652;50.306;8.570;2024-03-23T16:43:20;97235.53;;;5.20;73.57
20987;BME280;10652;50.306;8.570;2024-03-23T16:47:21;97240.50;;;5.26;74.08
20987;BME280;10652;50.306;8.570;2024-03-23T16:51:23;97241.38;;;5.26;74.38
20987;BME280;10652;50.306;8.570;2024-03-23T16:55:24;97244.25;;;5.19;74.20
20987;BME280;10652;50.306;8.570;2024-03-23T16:59:25;97252.56;;;5.05;74.84
20987;BME280;10652;50.306;8.570;2024-03-23T17:03:26;97248.06;;;4.87;74.75
20987;BME280;10652;50.306;8.570;2024-03-23T17:07:27;97243.50;;;4.70;75.75
20987;BME280;10652;50.306;8.570;2024-03-23T17:11:28;97245.75;;;4.56;76.67
20987;BME280;10652;50.306;8.570;2024-03-23T17:15:29;97246.81;;;4.50;77.85
20987;BME280;10652;50.306;8.570;2024-03-23T17:19:31;97243.69;;;4.41;77.93
20987;BME280;10652;50.306;8.570;2024-03-23T17:23:32;97252.50;;;4.37;78.56
20987;BME280;10652;50.306;8.570;2024-03-23T17:27:34;97278.28;;;4.43;79.77
20987;BME280;10652;50.306;8.570;2024-03-23T17:31:35;97306.06;;;4.41;81.53
20987;BME280;10652;50.306;8.570;2024-03-23T17:35:37;97319.47;;;4.30;83.09
20987;BME280;10652;50.306;8.570;2024-03-23T17:39:38;97327.59;;;4.19;83.46
20987;BME280;10652;50.306;8.570;2024-03-23T17:43:39;97327.47;;;3.98;84.95
20987;BME280;10652;50.306;8.570;2024-03-23T17:47:41;97288.25;;;3.77;85.54
20987;BME280;10652;50.306;8.570;2024-03-23T17:51:43;97292.81;;;3.71;86.01
20987;BME280;10652;50.306;8.570;2024-03-23T17:55:47;97287.19;;;3.57;85.96
20987;BME280;10652;50.306;8.570;2024-03-23T17:59:48;97273.63;;;3.49;87.74
20987;BME280;10652;50.306;8.570;2024-03-23T18:03:52;97266.84;;;3.43;89.54
20987;BME280;10652;50.306;8.570;2024-03-23T18:07:54;97271.91;;;3.48;92.54
20987;BME280;10652;50.306;8.570;2024-03-23T18:11:55;97277.38;;;3.38;91.65
20987;BME280;10652;50.306;8.570;2024-03-23T18:15:56;97277.06;;;3.21;91.22
20987;BME280;10652;50.306;8.570;2024-03-23T18:19:57;97275.16;;;2.99;90.45
20987;BME280;10652;50.306;8.570;2024-03-23T18:23:58;97275.34;;;2.91;92.08
20987;BME280;10652;50.306;8.570;2024-03-23T18:28:00;97270.88;;;2.96;93.15
20987;BME280;10652;50.306;8.570;2024-03-23T18:32:01;97269.28;;;2.92;92.01
20987;BME280;10652;50.306;8.570;2024-03-23T18:36:02;97272.13;;;2.83;91.10
20987;BME280;10652;50.306;8.570;2024-03-23T18:40:04;97271.50;;;2.75;89.70
20987;BME280;10652;50.306;8.570;2024-03-23T18:44:05;97274.13;;;3.04;94.84
20987;BME280;10652;50.306;8.570;2024-03-23T18:48:07;97270.53;;;3.08;88.53
20987;BME280;10652;50.306;8.570;2024-03-23T18:52:08;97278.66;;;2.96;88.13
20987;BME280;10652;50.306;8.570;2024-03-23T18:56:09;97279.84;;;2.86;88.08
20987;BME280;10652;50.306;8.570;2024-03-23T19:00:10;97284.31;;;2.81;88.59
20987;BME280;10652;50.306;8.570;2024-03-23T19:04:12;97292.94;;;2.81;89.82
20987;BME280;10652;50.306;8.570;2024-03-23T19:08:13;97288.56;;;2.82;90.36
20987;BME280;10652;50.306;8.570;2024-03-23T19:12:14;97280.03;;;2.78;91.04
20987;BME280;10652;50.306;8.570;2024-03-23T19:16:15;97267.34;;;2.69;91.27
20987;BME280;10652;50.306;8.570;2024-03-23T19:20:16;97268.31;;;2.65;92.34
20987;BME280;10652;50.306;8.570;2024-03-23T19:24:17;97270.38;;;2.83;95.54
20987;BME280;10652;50.306;8.570;2024-03-23T19:28:20;97267.28;;;2.72;94.27
20987;BME280;10652;50.306;8.570;2024-03-23T19:32:22;97273.47;;;2.67;94.03
20987;BME280;10652;50.306;8.570;2024-03-23T19:36:23;97257.19;;;2.62;93.66
20987;BME280;10652;50.306;8.570;2024-03-23T19:40:25;97250.94;;;2.69;94.24
20987;BME280;10652;50.306;8.570;2024-03-23T19:44:26;97256.97;;;2.69;93.64
20987;BME280;10652;50.306;8.570;2024-03-23T19:48:27;97256.34;;;2.61;92.88
20987;BME280;10652;50.306;8.570;2024-03-23T19:52:28;97261.75;;;2.54;92.80
20987;BME280;10652;50.306;8.570;2024-03-23T19:56:29;97258.50;;;2.45;92.88
20987;BME280;10652;50.306;8.570;2024-03-23T20:00:31;97255.13;;;2.43;93.32
20987;BME280;10652;50.306;8.570;2024-03-23T20:04:32;97253.56;;;2.36;92.73
20987;BME280;10652;50.306;8.570;2024-03-23T20:08:33;97248.31;;;2.39;94.15
20987;BME280;10652;50.306;8.570;2024-03-23T20:12:34;97243.13;;;2.39;94.29
20987;BME280;10652;50.306;8.570;2024-03-23T20:16:35;97243.03;;;2.42;94.61
20987;BME280;10652;50.306;8.570;2024-03-23T20:20:39;97236.94;;;2.45;94.71
20987;BME280;10652;50.306;8.570;2024-03-23T20:24:41;97235.28;;;2.41;94.23
20987;BME280;10652;50.306;8.570;2024-03-23T20:28:43;97228.59;;;2.34;94.21
20987;BME280;10652;50.306;8.570;2024-03-23T20:32:44;97234.88;;;2.25;93.81
20987;BME280;10652;50.306;8.570;2024-03-23T20:36:45;97235.81;;;2.23;93.22
20987;BME280;10652;50.306;8.570;2024-03-23T20:40:56;97235.03;;;2.19;93.08
20987;BME280;10652;50.306;8.570;2024-03-23T20:44:58;97237.56;;;2.22;93.61
20987;BME280;10652;50.306;8.570;2024-03-23T20:49:00;97235.72;;;2.57;96.33
20987;BME280;10652;50.306;8.570;2024-03-23T20:53:02;97234.28;;;2.46;93.21
20987;BME280;10652;50.306;8.570;2024-03-23T20:57:03;97247.56;;;2.36;92.28
20987;BME280;10652;50.306;8.570;2024-03-23T21:01:06;97231.31;;;2.29;91.83
20987;BME280;10652;50.306;8.570;2024-03-23T21:05:09;97238.44;;;2.21;91.83
20987;BME280;10652;50.306;8.570;2024-03-23T21:09:10;97242.88;;;2.18;92.20
20987;BME280;10652;50.306;8.570;2024-03-23T21:13:12;97234.41;;;2.11;92.63
20987;BME280;10652;50.306;8.570;2024-03-23T21:17:13;97229.22;;;2.11;93.38
20987;BME280;10652;50.306;8.570;2024-03-23T21:21:14;97247.09;;;2.20;93.71
20987;BME280;10652;50.306;8.570;2024-03-23T21:25:15;97243.41;;;2.29;93.52
20987;BME280;10652;50.306;8.570;2024-03-23T21:29:16;97238.06;;;2.35;93.74
20987;BME280;10652;50.306;8.570;2024-03-23T21:33:17;97241.19;;;2.47;94.39
20987;BME280;10652;50.306;8.570;2024-03-23T21:37:19;97247.81;;;2.58;93.78
20987;BME280;10652;50.306;8.570;2024-03-23T21:41:21;97236.22;;;2.69;94.00
20987;BME280;10652;50.306;8.570;2024-03-23T21:45:22;97235.25;;;2.73;92.49
20987;BME280;10652;50.306;8.570;2024-03-23T21:49:26;97237.25;;;2.64;91.78
20987;BME280;10652;50.306;8.570;2024-03-23T21:53:27;97222.47;;;2.67;94.64
20987;BME280;10652;50.306;8.570;2024-03-23T21:57:29;97214.78;;;3.21;99.92
20987;BME280;10652;50.306;8.570;2024-03-23T22:01:30;97218.72;;;3.05;93.96
20987;BME280;10652;50.306;8.570;2024-03-23T22:05:31;97220.22;;;2.84;92.69
20987;BME280;10652;50.306;8.570;2024-03-23T22:09:32;97205.09;;;2.69;92.58
20987;BME280;10652;50.306;8.570;2024-03-23T22:13:34;97211.50;;;2.58;93.01
20987;BME280;10652;50.306;8.570;2024-03-23T22:17:35;97208.09;;;2.56;93.45
20987;BME280;10652;50.306;8.570;2024-03-23T22:21:37;97192.75;;;2.50;93.30
20987;BME280;10652;50.306;8.570;2024-03-23T22:25:47;97192.09;;;2.41;93.10